createdAt,value
2022-09-22T00:02:44.734Z,10.95
2022-09-22T00:07:49.474Z,10.68
2022-09-22T00:12:54.823Z,11.05
2022-09-22T00:17:56.944Z,11.65
2022-09-22T00:22:58.962Z,10.77
2022-09-22T00:28:00.878Z,10.80
2022-09-22T00:33:02.656Z,11.35
2022-09-22T00:38:06.104Z,10.88
2022-09-22T00:43:17.967Z,12.82
2022-09-22T00:48:23.007Z,14.65
2022-09-22T00:53:26.061Z,14.38
2022-09-22T00:58:32.755Z,15.90
2022-09-22T01:03:39.213Z,17.77
2022-09-22T01:08:43.667Z,18.17
2022-09-22T01:14:06.697Z,14.93
2022-09-22T01:19:27.209Z,12.63
2022-09-22T01:24:53.847Z,11.98
2022-09-22T01:30:14.141Z,12.85
2022-09-22T01:35:27.975Z,13.73
2022-09-22T01:40:47.144Z,13.68
2022-09-22T01:45:50.890Z,14.73
2022-09-22T01:51:06.122Z,13.50
2022-09-22T01:56:11.048Z,14.38
2022-09-22T02:01:17.139Z,14.23
2022-09-22T02:06:29.154Z,16.17
2022-09-22T02:11:31.853Z,16.38
2022-09-22T02:16:34.918Z,16.20
2022-09-22T02:21:38.874Z,15.18
2022-09-22T02:26:40.691Z,15.98
2022-09-22T02:31:42.628Z,17.73
2022-09-22T02:37:17.336Z,15.07
2022-09-22T02:42:26.071Z,17.13
2022-09-22T02:47:37.107Z,16.77
2022-09-22T02:52:40.175Z,17.05
2022-09-22T02:57:43.473Z,16.73
2022-09-22T03:02:45.262Z,14.90
2022-09-22T03:07:47.041Z,15.60
2022-09-22T03:13:14.509Z,16.05
2022-09-22T03:18:10.799Z,16.65
2022-09-22T03:23:12.746Z,16.27
2022-09-22T03:28:14.521Z,15.60
2022-09-22T03:33:16.278Z,15.00
2022-09-22T03:38:18.049Z,16.13
2022-09-22T03:43:20.287Z,15.52
2022-09-22T03:48:22.057Z,14.60
2022-09-22T03:53:24.471Z,14.30
2022-09-22T03:58:26.375Z,15.07
2022-09-22T04:03:29.127Z,14.40
2022-09-22T04:08:30.947Z,14.93
2022-09-22T04:13:33.040Z,15.98
2022-09-22T04:18:39.777Z,14.60
2022-09-22T04:23:41.586Z,15.98
2022-09-22T04:28:43.443Z,14.88
2022-09-22T04:33:46.219Z,13.70
2022-09-22T04:38:48.302Z,13.88
2022-09-22T04:43:50.050Z,15.82
2022-09-22T04:48:51.793Z,16.88
2022-09-22T04:53:53.563Z,14.70
2022-09-22T04:58:55.331Z,13.52
2022-09-22T05:03:59.096Z,13.55
2022-09-22T05:09:00.912Z,13.65
2022-09-22T05:14:02.814Z,13.57
2022-09-22T05:19:04.584Z,13.93
2022-09-22T05:24:06.545Z,13.88
2022-09-22T05:29:08.423Z,14.50
2022-09-22T05:34:10.246Z,15.20
2022-09-22T05:39:12.017Z,16.65
2022-09-22T05:44:14.662Z,17.50
2022-09-22T05:49:16.414Z,17.88
2022-09-22T05:54:22.535Z,19.02
2022-09-22T05:59:25.103Z,20.70
2022-09-22T06:04:27.372Z,21.30
2022-09-22T06:09:29.174Z,22.65
2022-09-22T06:14:30.962Z,23.15
2022-09-22T06:19:33.628Z,32.47
2022-09-22T06:24:35.441Z,25.75
2022-09-22T06:29:38.060Z,20.92
2022-09-22T06:34:39.807Z,17.17
2022-09-22T06:39:41.562Z,15.20
2022-09-22T06:44:44.532Z,14.30
2022-09-22T06:49:46.788Z,13.45
2022-09-22T06:54:50.700Z,12.70
2022-09-22T06:59:53.721Z,12.60
2022-09-22T07:04:59.341Z,12.32
2022-09-22T07:10:01.146Z,11.77
2022-09-22T07:15:03.102Z,12.13
2022-09-22T07:20:05.251Z,13.05
2022-09-22T07:25:08.717Z,11.38
2022-09-22T07:30:10.958Z,12.48
2022-09-22T07:35:12.802Z,13.82
2022-09-22T07:40:14.839Z,12.80
2022-09-22T07:45:16.947Z,13.40
2022-09-22T07:50:18.749Z,12.32
2022-09-22T07:55:25.209Z,12.88
2022-09-22T08:00:33.066Z,12.13
2022-09-22T08:05:35.250Z,13.65
2022-09-22T08:10:37.056Z,13.30
2022-09-22T08:15:40.284Z,12.40
2022-09-22T08:20:45.269Z,11.48
2022-09-22T08:25:47.126Z,11.05
2022-09-22T08:30:49.106Z,11.27
2022-09-22T08:35:59.020Z,13.50
2022-09-22T08:41:17.130Z,12.70
2022-09-22T08:46:19.010Z,12.15
2022-09-22T08:51:52.366Z,12.88
2022-09-22T08:57:08.222Z,10.95
2022-09-22T09:02:32.864Z,10.98
2022-09-22T09:07:44.011Z,11.57
2022-09-22T09:13:42.252Z,10.93
2022-09-22T09:18:52.614Z,9.35
2022-09-22T09:29:27.191Z,9.80
2022-09-22T09:34:30.043Z,10.10
2022-09-22T09:39:37.717Z,10.57
2022-09-22T09:44:40.300Z,11.80
2022-09-22T09:49:42.084Z,11.38
2022-09-22T09:54:47.244Z,11.68
2022-09-22T10:00:28.973Z,12.18
2022-09-22T10:05:32.572Z,11.85
2022-09-22T10:10:37.619Z,10.52
2022-09-22T10:15:41.613Z,11.85
2022-09-22T10:20:43.487Z,12.02
2022-09-22T10:25:45.237Z,11.48
2022-09-22T10:31:18.224Z,11.45
2022-09-22T10:36:20.224Z,11.52
2022-09-22T10:41:27.486Z,11.85
2022-09-22T10:46:41.986Z,11.70
2022-09-22T10:52:18.690Z,11.18
2022-09-22T10:57:56.213Z,11.50
2022-09-22T11:03:35.064Z,11.55
2022-09-22T11:09:18.889Z,11.65
2022-09-22T11:14:37.682Z,12.18
2022-09-22T11:19:52.993Z,12.15
2022-09-22T11:24:57.641Z,12.32
2022-09-22T11:30:11.657Z,12.18
2022-09-22T11:35:40.859Z,11.73
2022-09-22T11:41:30.332Z,11.20
2022-09-22T11:46:56.794Z,12.00
2022-09-22T11:52:17.473Z,12.10
2022-09-22T11:57:23.970Z,12.55
2022-09-22T12:02:41.509Z,12.80
2022-09-22T12:07:50.764Z,13.68
2022-09-22T12:12:53.086Z,12.95
2022-09-22T12:18:11.811Z,13.20
2022-09-22T12:23:19.033Z,12.55
2022-09-22T12:28:29.345Z,12.82
2022-09-22T12:33:36.573Z,11.85
2022-09-22T12:38:40.925Z,11.70
2022-09-22T12:43:42.711Z,12.02
2022-09-22T12:48:45.841Z,12.40
2022-09-22T12:58:49.277Z,12.80
2022-09-22T13:03:52.549Z,12.63
2022-09-22T13:08:54.263Z,12.70
2022-09-22T13:13:56.052Z,12.85
2022-09-22T13:18:59.656Z,13.20
2022-09-22T13:24:03.768Z,11.90
2022-09-22T13:29:10.342Z,12.35
2022-09-22T13:34:31.951Z,12.73
2022-09-22T13:39:46.906Z,12.60
2022-09-22T13:45:10.443Z,12.93
2022-09-22T13:50:19.948Z,13.25
2022-09-22T13:55:34.071Z,11.93
2022-09-22T14:01:11.937Z,12.05
2022-09-22T14:06:14.465Z,12.07
2022-09-22T14:11:21.529Z,12.32
2022-09-22T14:16:47.106Z,11.70
2022-09-22T14:21:55.405Z,11.98
2022-09-22T14:27:04.616Z,12.45
2022-09-22T14:32:13.023Z,12.30
2022-09-22T14:37:23.466Z,12.95
2022-09-22T14:42:29.291Z,13.15
2022-09-22T14:47:39.179Z,12.82
2022-09-22T14:52:49.801Z,13.38
2022-09-22T14:57:51.909Z,13.35
2022-09-22T15:02:55.701Z,13.65
2022-09-22T15:07:58.788Z,12.90
2022-09-22T15:13:29.669Z,13.13
2022-09-22T15:18:31.543Z,13.20
2022-09-22T15:23:47.579Z,12.90
2022-09-22T15:28:51.794Z,12.57
2022-09-22T15:33:54.600Z,12.85
2022-09-22T15:39:06.583Z,12.10
2022-09-22T15:44:08.955Z,12.88
2022-09-22T15:49:17.731Z,12.65
2022-09-22T15:54:22.104Z,12.98
2022-09-22T15:59:28.299Z,12.65
2022-09-22T16:04:34.319Z,12.35
2022-09-22T16:09:36.440Z,11.35
2022-09-22T16:14:39.720Z,11.25
2022-09-22T16:19:41.548Z,11.68
2022-09-22T16:24:44.199Z,10.98
2022-09-22T16:29:46.042Z,10.23
2022-09-22T16:34:47.834Z,9.98
2022-09-22T16:39:49.645Z,9.30
2022-09-22T16:44:51.461Z,8.15
2022-09-22T16:49:55.719Z,8.20
2022-09-22T16:54:59.794Z,8.10
2022-09-22T17:00:02.125Z,8.10
2022-09-22T17:05:04.257Z,9.60
2022-09-22T17:10:07.053Z,11.27
2022-09-22T17:15:12.204Z,18.15
2022-09-22T17:20:14.058Z,15.23
2022-09-22T17:25:16.069Z,12.55
2022-09-22T17:30:17.932Z,12.77
2022-09-22T17:35:19.723Z,17.15
2022-09-22T17:40:21.597Z,18.42
2022-09-22T17:45:23.467Z,16.83
2022-09-22T17:50:43.863Z,11.75
2022-09-22T17:55:45.799Z,8.55
2022-09-22T18:00:47.723Z,10.27
2022-09-22T18:05:53.642Z,10.05
2022-09-22T18:10:55.505Z,9.73
2022-09-22T18:15:57.293Z,10.25
2022-09-22T18:20:59.230Z,9.77
2022-09-22T18:26:01.968Z,8.38
2022-09-22T18:31:03.841Z,10.38
2022-09-22T18:36:05.857Z,22.75
2022-09-22T18:41:07.735Z,14.18
2022-09-22T18:46:11.942Z,14.98
2022-09-22T18:51:13.781Z,10.05
2022-09-22T18:56:17.672Z,10.25
2022-09-22T19:01:20.405Z,9.95
2022-09-22T19:06:22.297Z,9.75
2022-09-22T19:11:24.220Z,10.57
2022-09-22T19:16:26.104Z,10.30
2022-09-22T19:21:28.001Z,10.40
2022-09-22T19:26:29.863Z,8.10
2022-09-22T19:31:33.127Z,7.65
2022-09-22T19:36:35.518Z,10.25
2022-09-22T19:41:40.803Z,8.90
2022-09-22T19:46:43.981Z,10.15
2022-09-22T19:51:45.891Z,11.93
2022-09-22T19:56:48.829Z,24.67
2022-09-22T20:01:51.132Z,17.48
2022-09-22T20:06:53.009Z,15.15
2022-09-22T20:11:54.926Z,30.45
2022-09-22T20:17:05.900Z,41.20
2022-09-22T20:22:26.344Z,34.92
2022-09-22T20:27:31.663Z,18.73
2022-09-22T20:32:34.646Z,15.55
2022-09-22T20:37:36.567Z,11.43
2022-09-22T20:42:38.418Z,9.30
2022-09-22T20:47:40.187Z,9.10
2022-09-22T20:52:43.002Z,8.63
2022-09-22T20:57:44.878Z,8.48
2022-09-22T21:02:47.435Z,7.82
2022-09-22T21:08:09.260Z,8.10
2022-09-22T21:13:12.451Z,7.75
2022-09-22T21:18:17.346Z,7.35
2022-09-22T21:23:19.916Z,7.57
2022-09-22T21:28:21.720Z,8.02
2022-09-22T21:33:24.242Z,6.85
2022-09-22T21:38:26.009Z,7.85
2022-09-22T21:43:29.400Z,7.18
2022-09-22T21:48:32.721Z,7.00
2022-09-22T21:53:35.939Z,6.35
2022-09-22T21:58:40.177Z,5.85
2022-09-22T22:03:43.922Z,6.32
2022-09-22T22:09:08.666Z,6.50
2022-09-22T22:14:12.832Z,6.25
2022-09-22T22:19:18.166Z,6.30
2022-09-22T22:24:29.017Z,6.40
2022-09-22T22:29:32.042Z,6.35
2022-09-22T22:34:33.828Z,5.88
2022-09-22T22:39:35.669Z,5.97
2022-09-22T22:44:37.475Z,5.63
2022-09-22T22:49:39.248Z,5.53
2022-09-22T22:54:43.308Z,5.43
2022-09-22T22:59:45.034Z,5.63
2022-09-22T23:04:46.772Z,5.43
2022-09-22T23:09:48.560Z,5.82
2022-09-22T23:14:50.311Z,5.80
2022-09-22T23:19:52.983Z,5.65
2022-09-22T23:24:54.731Z,6.13
2022-09-22T23:30:02.134Z,5.97
2022-09-22T23:35:06.727Z,5.68
2022-09-22T23:40:09.407Z,6.13
2022-09-22T23:45:11.192Z,6.20
2022-09-22T23:50:12.975Z,6.32
2022-09-22T23:55:14.768Z,6.53
